Terminal Aerodrome Forecast
Issued by NWS Pocatello, ID

Home | Current Version | Previous Version | Text Only | Print | Product List | Glossary On
Versions: 1 2 3 4 5 6 7 8 9 10 11 12 13 14 15
000
FTUS45 KPIH 260300 AAB
TAFBYI
TAF AMD
KBYI 260359Z 2604/2624 26014KT P6SM VCTS SCT060 BKN090CB
     FM260500 25013KT P6SM VCSH SCT080 BKN110
     FM261000 22016KT P6SM VCSH SCT060 BKN100
     FM261400 25018G28KT P6SM VCSH SCT080 BKN120
     FM261900 28015G25KT P6SM SCT100 BKN200=

USA.gov is the U.S. government's official web portal to all federal, state and local government web resources and services.